Time;durP1;ratioP1;P1;durP2;ratioP2;P2;SDS_P1;SDS_P2;PMS_P1;PMS_P2;Temp;Humidity;BMP_temperature;BMP_pressure;BME280_temperature;BME280_humidity;BME280_pressure;Samples;Min_cycle;Max_cycle;Signal;HPM_P1;HPM_P2
2022/03/31 00:00:41;;;;;;;3.22;0.65;;;4.50;99.90;;;;;;5027256;28;20144;-72
2022/03/31 00:03:09;;;;;;;6.30;0.77;;;4.50;99.90;;;;;;5033028;28;20133;-72
2022/03/31 00:05:36;;;;;;;4.07;0.88;;;4.50;99.90;;;;;;5034299;28;20114;-71
2022/03/31 00:08:06;;;;;;;3.55;0.88;;;4.50;99.90;;;;;;5028359;28;20041;-72
2022/03/31 00:10:35;;;;;;;5.25;0.75;;;4.50;99.90;;;;;;5027991;28;20091;-72
2022/03/31 00:13:05;;;;;;;2.22;0.70;;;4.50;99.90;;;;;;5031785;28;20051;-71
2022/03/31 00:15:32;;;;;;;1.25;0.60;;;4.50;99.90;;;;;;5028412;28;20950;-72
2022/03/31 00:17:59;;;;;;;6.03;0.60;;;4.50;99.90;;;;;;5036370;28;20211;-72
2022/03/31 00:23:47;;;;;;;2.15;0.50;;;4.50;99.90;;;;;;5020723;28;20140;-71
2022/03/31 00:26:15;;;;;;;5.63;0.70;;;4.50;99.90;;;;;;5030985;28;20049;-72
2022/03/31 00:28:40;;;;;;;2.35;0.60;;;4.50;99.90;;;;;;5025089;28;20100;-71
2022/03/31 00:31:06;;;;;;;3.83;0.70;;;4.50;99.90;;;;;;5027035;28;20575;-71
2022/03/31 00:33:32;;;;;;;3.78;0.60;;;4.50;99.90;;;;;;5033356;28;20479;-72
2022/03/31 00:35:57;;;;;;;2.38;0.65;;;4.50;99.90;;;;;;5034302;28;20386;-72
2022/03/31 00:38:23;;;;;;;3.45;0.65;;;4.50;99.90;;;;;;5038344;28;20778;-72
2022/03/31 00:40:49;;;;;;;3.65;0.70;;;4.50;99.90;;;;;;5032332;28;20758;-72
2022/03/31 00:43:15;;;;;;;2.10;0.70;;;4.50;99.90;;;;;;5023193;28;20051;-72
2022/03/31 00:45:46;;;;;;;2.50;0.80;;;4.50;99.90;;;;;;5031557;28;20118;-72
2022/03/31 00:48:16;;;;;;;1.88;0.77;;;4.50;99.90;;;;;;5027668;28;20044;-72
2022/03/31 00:50:43;;;;;;;4.03;1.30;;;4.40;99.90;;;;;;5032309;28;20045;-72
2022/03/31 00:53:09;;;;;;;4.53;1.02;;;4.40;99.90;;;;;;5034243;28;20068;-72
2022/03/31 00:55:35;;;;;;;3.13;0.98;;;4.40;99.90;;;;;;5019927;28;20103;-71
2022/03/31 00:58:02;;;;;;;3.45;0.70;;;4.40;99.90;;;;;;5033054;28;20129;-72
2022/03/31 01:00:29;;;;;;;3.90;0.65;;;4.30;99.90;;;;;;5026742;28;20748;-72
2022/03/31 01:02:55;;;;;;;4.07;0.70;;;4.30;99.90;;;;;;5023925;28;20036;-72
2022/03/31 01:05:21;;;;;;;6.30;1.23;;;4.30;99.90;;;;;;5027595;28;20052;-72
2022/03/31 01:07:47;;;;;;;2.42;0.70;;;4.40;99.90;;;;;;5027877;28;20037;-72
2022/03/31 01:10:14;;;;;;;3.63;0.75;;;4.30;99.90;;;;;;5031065;28;20056;-72
2022/03/31 01:12:41;;;;;;;8.07;1.00;;;4.30;99.90;;;;;;5031442;28;20088;-72
2022/03/31 01:15:19;;;;;;;5.78;0.82;;;4.30;99.90;;;;;;5027335;28;20064;-72
2022/03/31 01:17:47;;;;;;;5.43;1.10;;;4.20;99.90;;;;;;5022687;28;20445;-72
2022/03/31 01:20:21;;;;;;;4.68;0.80;;;4.20;99.90;;;;;;5034933;28;20124;-72
2022/03/31 01:22:47;;;;;;;6.32;1.00;;;4.20;99.90;;;;;;5034824;28;20041;-72
2022/03/31 01:25:14;;;;;;;4.40;0.90;;;4.20;99.90;;;;;;5022318;28;20576;-72
2022/03/31 01:27:43;;;;;;;3.88;1.05;;;4.20;99.90;;;;;;5031440;28;20060;-72
2022/03/31 01:30:13;;;;;;;5.88;1.25;;;4.20;99.90;;;;;;5028456;28;20064;-72
2022/03/31 01:32:39;;;;;;;3.83;1.10;;;4.20;99.90;;;;;;5029062;28;20056;-72
2022/03/31 01:35:07;;;;;;;5.15;1.40;;;4.20;99.90;;;;;;5034787;28;20089;-72
2022/03/31 01:37:33;;;;;;;5.30;1.35;;;4.20;99.90;;;;;;5020413;28;20050;-72
2022/03/31 01:39:59;;;;;;;5.40;1.38;;;4.10;99.90;;;;;;5031228;28;20595;-72
2022/03/31 01:42:29;;;;;;;4.32;1.70;;;4.20;99.90;;;;;;5026821;28;20049;-72
2022/03/31 01:44:55;;;;;;;3.90;1.33;;;4.10;99.90;;;;;;5022196;28;20041;-72
2022/03/31 01:47:21;;;;;;;4.15;1.55;;;4.10;99.90;;;;;;5029324;28;20041;-72
2022/03/31 01:49:47;;;;;;;5.82;1.73;;;4.10;99.90;;;;;;5035167;28;20048;-72
2022/03/31 01:52:12;;;;;;;5.70;1.90;;;4.10;99.90;;;;;;5035014;28;20579;-73
2022/03/31 01:54:38;;;;;;;4.20;1.42;;;4.20;99.90;;;;;;5028755;28;20703;-73
2022/03/31 01:57:05;;;;;;;5.95;1.88;;;4.10;99.90;;;;;;5026860;28;20771;-72
2022/03/31 01:59:40;;;;;;;9.30;2.08;;;4.10;99.90;;;;;;5026051;28;20045;-73
2022/03/31 02:02:07;;;;;;;5.15;1.98;;;4.10;99.90;;;;;;5022731;28;20126;-73
2022/03/31 02:04:33;;;;;;;4.40;2.00;;;4.10;99.90;;;;;;5028636;28;20129;-73
2022/03/31 02:06:59;;;;;;;6.93;2.00;;;4.10;99.90;;;;;;5027488;28;20049;-73
2022/03/31 02:09:25;;;;;;;5.85;2.38;;;4.10;99.90;;;;;;5032655;28;20610;-72
2022/03/31 02:11:52;;;;;;;6.38;2.42;;;4.10;99.90;;;;;;5025362;28;20045;-73
2022/03/31 02:14:19;;;;;;;9.40;2.70;;;4.10;99.90;;;;;;5029603;28;20044;-72
2022/03/31 02:16:46;;;;;;;8.02;2.10;;;4.10;99.90;;;;;;5031270;28;20053;-73
2022/03/31 02:19:12;;;;;;;7.70;3.00;;;4.10;99.90;;;;;;5031682;28;20064;-73
2022/03/31 02:21:38;;;;;;;8.07;3.97;;;4.10;99.90;;;;;;5019380;28;20053;-73
2022/03/31 02:24:04;;;;;;;10.73;4.47;;;4.10;99.90;;;;;;5030175;28;20049;-73
2022/03/31 02:26:30;;;;;;;9.85;4.38;;;4.10;99.90;;;;;;5022371;28;20765;-72
2022/03/31 02:28:56;;;;;;;10.65;5.65;;;4.10;99.90;;;;;;5019017;28;20045;-72
2022/03/31 02:31:21;;;;;;;9.52;5.50;;;4.00;99.90;;;;;;5019078;28;20056;-72
2022/03/31 02:33:47;;;;;;;10.27;5.43;;;4.10;99.90;;;;;;5030706;28;20061;-72
2022/03/31 02:36:13;;;;;;;12.35;5.97;;;4.00;99.90;;;;;;5030985;28;20119;-72
2022/03/31 02:38:38;;;;;;;9.52;5.68;;;4.00;99.90;;;;;;5027087;28;20041;-72
2022/03/31 02:41:07;;;;;;;10.10;5.65;;;4.00;99.90;;;;;;5024803;28;20080;-73
2022/03/31 02:43:32;;;;;;;8.10;4.97;;;4.00;99.90;;;;;;5032228;28;20045;-73
2022/03/31 02:45:59;;;;;;;9.90;4.95;;;4.50;99.90;;;;;;5034514;28;20049;-73
2022/03/31 02:48:25;;;;;;;9.88;5.28;;;4.20;99.90;;;;;;5027139;28;20174;-73
2022/03/31 02:50:51;;;;;;;8.77;4.75;;;4.00;99.90;;;;;;5037256;28;20056;-73
2022/03/31 02:56:01;;;;;;;6.43;3.90;;;4.00;99.90;;;;;;5027599;28;20056;-73
2022/03/31 02:58:26;;;;;;;9.82;5.60;;;4.00;99.90;;;;;;5031644;28;20055;-73
2022/03/31 03:00:52;;;;;;;9.25;4.82;;;4.50;99.90;;;;;;5028758;28;20047;-73
2022/03/31 03:03:19;;;;;;;8.00;4.78;;;3.90;99.90;;;;;;5026575;28;20144;-73
2022/03/31 03:05:46;;;;;;;10.05;5.53;;;3.90;99.90;;;;;;5022922;28;20502;-73
2022/03/31 03:08:12;;;;;;;10.50;5.53;;;3.90;99.90;;;;;;5028406;28;20045;-73
2022/03/31 03:10:38;;;;;;;8.07;4.40;;;3.90;99.90;;;;;;5027149;28;20053;-73
2022/03/31 03:13:04;;;;;;;9.23;5.32;;;3.90;99.90;;;;;;5032662;28;20094;-73
2022/03/31 03:15:29;;;;;;;9.13;4.45;;;3.90;99.90;;;;;;5035616;28;20496;-73
2022/03/31 03:17:55;;;;;;;7.80;4.45;;;3.90;99.90;;;;;;5028497;28;20045;-73
2022/03/31 03:20:24;;;;;;;9.43;5.47;;;3.90;99.90;;;;;;5031202;28;20079;-73
2022/03/31 03:22:51;;;;;;;7.60;4.68;;;3.90;99.90;;;;;;5032619;28;20871;-73
2022/03/31 03:25:18;;;;;;;6.65;4.10;;;4.00;99.90;;;;;;5024488;28;20509;-73
2022/03/31 03:27:48;;;;;;;6.40;4.07;;;3.90;99.90;;;;;;5035841;28;20531;-73
2022/03/31 03:30:17;;;;;;;8.48;4.55;;;3.90;99.90;;;;;;5026845;28;20041;-73
2022/03/31 03:32:42;;;;;;;6.88;3.85;;;3.90;99.90;;;;;;5034423;28;20078;-72
2022/03/31 03:35:10;;;;;;;7.35;4.20;;;3.90;99.90;;;;;;5027885;28;20801;-72
2022/03/31 03:37:38;;;;;;;8.23;4.30;;;3.90;99.90;;;;;;5033410;28;20061;-72
2022/03/31 03:40:05;;;;;;;6.97;4.43;;;3.90;99.90;;;;;;5035800;28;20060;-73
2022/03/31 03:42:31;;;;;;;9.98;4.88;;;3.80;99.90;;;;;;5045619;28;20073;-72
2022/03/31 03:44:58;;;;;;;8.93;5.43;;;3.90;99.90;;;;;;5032944;28;20644;-73
2022/03/31 03:47:24;;;;;;;9.07;4.85;;;3.90;99.90;;;;;;5021765;28;20686;-73
2022/03/31 03:49:50;;;;;;;11.10;6.55;;;3.80;99.90;;;;;;5033016;28;20801;-72
2022/03/31 03:52:17;;;;;;;10.52;6.15;;;3.80;99.90;;;;;;5019653;28;20148;-72
2022/03/31 03:54:42;;;;;;;11.82;6.40;;;3.80;99.90;;;;;;5032845;28;20515;-72
2022/03/31 03:57:08;;;;;;;11.25;6.90;;;3.80;99.90;;;;;;5027645;28;20055;-72
2022/03/31 03:59:35;;;;;;;11.40;6.53;;;3.80;99.90;;;;;;5032920;28;20052;-73
2022/03/31 04:02:01;;;;;;;12.30;6.93;;;3.80;99.90;;;;;;5035329;28;20087;-72
2022/03/31 04:04:29;;;;;;;11.65;7.20;;;3.80;99.90;;;;;;5026503;28;20045;-73
2022/03/31 04:06:56;;;;;;;12.38;6.78;;;4.00;99.90;;;;;;5028099;28;20056;-72
2022/03/31 04:09:22;;;;;;;9.88;6.50;;;3.70;99.90;;;;;;5030041;28;20042;-73
2022/03/31 04:11:48;;;;;;;13.93;7.20;;;3.70;99.90;;;;;;5035390;28;20037;-72
2022/03/31 04:14:14;;;;;;;12.07;7.57;;;3.70;99.90;;;;;;5035186;28;20049;-73
2022/03/31 04:16:40;;;;;;;14.93;8.52;;;3.60;99.90;;;;;;5028268;28;20088;-72
2022/03/31 04:19:09;;;;;;;11.15;7.13;;;3.90;99.90;;;;;;5034690;28;20040;-72
2022/03/31 04:21:38;;;;;;;12.52;7.22;;;3.60;99.90;;;;;;5029615;28;20468;-72
2022/03/31 04:24:05;;;;;;;12.50;7.57;;;3.60;99.90;;;;;;5032434;28;20041;-73
2022/03/31 04:26:31;;;;;;;11.80;7.60;;;3.60;99.90;;;;;;5026631;28;20106;-72
2022/03/31 04:28:57;;;;;;;13.20;7.70;;;3.60;99.90;;;;;;5028721;28;20125;-73
2022/03/31 04:31:22;;;;;;;11.68;7.65;;;3.60;99.90;;;;;;5033130;28;20488;-73
2022/03/31 04:33:48;;;;;;;11.30;7.30;;;3.60;99.90;;;;;;5034926;28;20096;-73
2022/03/31 04:36:14;;;;;;;12.10;7.45;;;3.60;99.90;;;;;;5026267;28;20048;-73
2022/03/31 04:38:40;;;;;;;12.18;8.00;;;3.60;99.90;;;;;;5034777;28;20052;-73
2022/03/31 04:41:06;;;;;;;13.35;8.43;;;4.10;99.90;;;;;;5031388;28;20053;-73
2022/03/31 04:43:31;;;;;;;12.77;8.40;;;3.60;99.90;;;;;;5032297;28;20044;-73
2022/03/31 04:45:57;;;;;;;12.77;8.52;;;3.60;99.90;;;;;;5028531;28;20499;-73
2022/03/31 04:48:23;;;;;;;12.75;7.65;;;3.60;99.90;;;;;;5026828;28;20127;-73
2022/03/31 04:50:49;;;;;;;12.88;8.48;;;3.60;99.90;;;;;;5035592;28;20060;-73
2022/03/31 04:53:15;;;;;;;15.63;9.60;;;3.60;99.90;;;;;;5030512;28;20060;-73
2022/03/31 04:55:41;;;;;;;13.30;9.32;;;3.60;99.90;;;;;;5025189;28;20386;-73
2022/03/31 04:58:06;;;;;;;13.93;9.00;;;3.60;99.90;;;;;;5027386;28;20136;-73
2022/03/31 05:00:32;;;;;;;17.58;11.07;;;3.60;99.90;;;;;;5031399;28;20605;-73
2022/03/31 05:02:59;;;;;;;15.77;10.70;;;3.60;99.90;;;;;;5026807;28;20037;-73
2022/03/31 05:05:28;;;;;;;16.63;10.77;;;3.60;99.90;;;;;;5031601;28;20059;-73
2022/03/31 05:07:54;;;;;;;16.17;9.98;;;3.60;99.90;;;;;;5030479;28;20041;-73
2022/03/31 05:10:19;;;;;;;14.98;10.13;;;3.50;99.90;;;;;;5022681;28;20061;-73
2022/03/31 05:12:45;;;;;;;13.85;9.27;;;3.50;99.90;;;;;;5033787;28;20047;-73
2022/03/31 05:15:14;;;;;;;14.68;10.50;;;3.50;99.90;;;;;;5033335;28;20057;-73
2022/03/31 05:17:40;;;;;;;13.88;9.20;;;3.50;99.90;;;;;;5031617;28;20102;-73
2022/03/31 05:20:07;;;;;;;15.00;10.30;;;3.60;99.90;;;;;;5026094;28;20044;-76
2022/03/31 05:22:33;;;;;;;14.10;9.65;;;3.50;99.90;;;;;;5032372;28;20052;-73
2022/03/31 05:24:59;;;;;;;15.23;9.38;;;3.60;99.90;;;;;;5024722;28;20085;-73
2022/03/31 05:27:25;;;;;;;12.95;8.60;;;4.10;99.90;;;;;;5028259;28;20053;-73
2022/03/31 05:29:50;;;;;;;13.65;9.02;;;3.50;99.90;;;;;;5036062;28;20755;-73
2022/03/31 05:32:16;;;;;;;13.80;8.60;;;3.50;99.90;;;;;;5026133;28;20647;-73
2022/03/31 05:34:42;;;;;;;12.85;8.75;;;3.50;99.90;;;;;;5032175;28;20081;-73
2022/03/31 05:37:07;;;;;;;11.75;8.02;;;3.50;99.90;;;;;;5030144;28;20088;-74
2022/03/31 05:39:34;;;;;;;11.25;7.70;;;3.50;99.90;;;;;;5032077;28;20507;-73
2022/03/31 05:42:00;;;;;;;12.77;8.25;;;3.50;99.90;;;;;;5030353;28;20488;-72
2022/03/31 05:44:26;;;;;;;9.82;6.53;;;3.50;99.90;;;;;;5025201;28;20140;-73
2022/03/31 05:46:51;;;;;;;9.75;6.65;;;3.50;99.90;;;;;;5024675;28;20073;-73
2022/03/31 05:49:17;;;;;;;9.18;6.07;;;3.50;99.90;;;;;;5029776;28;20067;-73
2022/03/31 05:51:43;;;;;;;8.85;6.13;;;3.40;99.90;;;;;;5031347;28;20046;-73
2022/03/31 05:54:09;;;;;;;7.30;5.18;;;3.50;99.90;;;;;;5025097;28;20648;-73
2022/03/31 05:56:36;;;;;;;8.38;5.90;;;3.40;99.90;;;;;;5022650;28;20779;-73
2022/03/31 05:59:02;;;;;;;7.57;5.65;;;3.50;99.90;;;;;;5024994;28;20052;-73
2022/03/31 06:01:27;;;;;;;6.95;5.43;;;3.40;99.90;;;;;;5032290;28;20049;-73
2022/03/31 06:03:55;;;;;;;8.10;5.60;;;3.40;99.90;;;;;;5028282;28;20099;-73
2022/03/31 06:06:20;;;;;;;7.00;5.18;;;3.50;99.90;;;;;;5034097;28;20090;-73
2022/03/31 06:08:46;;;;;;;8.95;5.18;;;3.50;99.90;;;;;;5025242;28;20041;-72
2022/03/31 06:11:12;;;;;;;6.68;5.18;;;3.50;99.90;;;;;;5024332;28;20045;-73
2022/03/31 06:13:37;;;;;;;7.18;5.30;;;3.60;99.90;;;;;;5032251;28;20144;-73
2022/03/31 06:16:03;;;;;;;6.60;5.00;;;3.60;99.90;;;;;;5028725;28;20404;-74
2022/03/31 06:18:30;;;;;;;7.78;5.75;;;3.60;99.90;;;;;;5025864;28;20060;-73
2022/03/31 06:20:57;;;;;;;7.47;5.28;;;3.60;99.90;;;;;;5031171;28;20045;-74
2022/03/31 06:23:22;;;;;;;7.50;5.45;;;3.60;99.90;;;;;;5027310;28;20063;-72
2022/03/31 06:25:49;;;;;;;6.65;4.82;;;3.60;99.90;;;;;;5033414;28;20302;-73
2022/03/31 06:28:16;;;;;;;7.13;5.68;;;3.60;99.90;;;;;;5030611;28;20041;-74
2022/03/31 06:30:41;;;;;;;6.47;4.75;;;3.70;99.90;;;;;;5028433;28;20056;-74
2022/03/31 06:33:08;;;;;;;7.05;5.65;;;3.70;99.90;;;;;;5053649;28;20094;-74
2022/03/31 06:35:34;;;;;;;6.68;5.07;;;3.70;99.90;;;;;;5035715;28;20061;-74
2022/03/31 06:38:00;;;;;;;6.50;4.65;;;3.60;99.90;;;;;;5032332;28;20041;-75
2022/03/31 06:40:27;;;;;;;6.45;4.68;;;3.60;99.90;;;;;;5024963;28;20057;-75
2022/03/31 06:42:53;;;;;;;6.72;4.90;;;3.60;99.90;;;;;;5021688;28;20045;-75
2022/03/31 06:45:19;;;;;;;6.68;4.75;;;3.50;99.90;;;;;;5028147;28;20049;-75
2022/03/31 06:47:45;;;;;;;6.88;4.82;;;3.50;99.90;;;;;;5022288;28;20053;-75
2022/03/31 06:50:13;;;;;;;6.72;4.85;;;3.50;99.90;;;;;;5031909;28;20820;-75
2022/03/31 06:52:39;;;;;;;6.57;5.15;;;3.50;99.90;;;;;;5029975;28;20749;-75
2022/03/31 06:55:05;;;;;;;7.60;5.22;;;3.50;99.90;;;;;;5030641;28;20682;-74
2022/03/31 06:57:31;;;;;;;8.15;5.07;;;3.50;99.90;;;;;;5025217;28;20049;-75
2022/03/31 06:59:57;;;;;;;8.15;4.97;;;3.50;99.90;;;;;;5040364;28;20144;-75
2022/03/31 07:02:23;;;;;;;7.88;5.45;;;3.70;99.90;;;;;;5040239;28;20067;-74
2022/03/31 07:04:49;;;;;;;8.05;5.80;;;3.50;99.90;;;;;;5037332;28;20088;-74
2022/03/31 07:07:15;;;;;;;7.60;5.60;;;3.50;99.90;;;;;;5038538;28;20545;-74
2022/03/31 07:09:40;;;;;;;7.85;5.90;;;3.60;99.90;;;;;;5036898;28;20095;-75
2022/03/31 07:12:06;;;;;;;9.32;6.55;;;3.60;99.90;;;;;;5027630;28;20706;-75
2022/03/31 07:14:36;;;;;;;7.85;5.93;;;3.60;99.90;;;;;;5035647;28;20748;-74
2022/03/31 07:17:02;;;;;;;8.07;6.35;;;3.60;99.90;;;;;;5044434;28;20056;-74
2022/03/31 07:19:27;;;;;;;9.70;6.32;;;3.60;99.90;;;;;;5034581;28;20048;-74
2022/03/31 07:21:53;;;;;;;7.93;6.10;;;3.60;99.90;;;;;;5026689;28;20044;-75
2022/03/31 07:24:19;;;;;;;9.18;6.72;;;3.60;99.90;;;;;;5022593;28;20052;-76
2022/03/31 07:26:45;;;;;;;10.68;7.05;;;3.60;99.90;;;;;;5039976;28;20168;-81
2022/03/31 07:29:11;;;;;;;9.15;6.90;;;4.40;99.90;;;;;;5040463;28;20125;-81
2022/03/31 07:31:36;;;;;;;9.20;7.03;;;3.60;99.90;;;;;;5040187;28;20203;-81
2022/03/31 07:34:02;;;;;;;9.73;7.25;;;3.60;99.90;;;;;;5033128;28;20116;-81
2022/03/31 07:36:28;;;;;;;8.98;6.50;;;4.80;99.90;;;;;;5030490;28;20111;-81
2022/03/31 07:38:53;;;;;;;8.88;6.28;;;3.70;99.90;;;;;;5028272;28;20067;-82
2022/03/31 07:41:19;;;;;;;7.85;6.25;;;4.60;99.90;;;;;;5026284;28;20492;-81
2022/03/31 07:43:45;;;;;;;8.27;6.45;;;3.60;99.90;;;;;;5026017;28;20056;-82
2022/03/31 07:46:11;;;;;;;8.10;6.03;;;3.70;99.90;;;;;;5033166;28;20044;-80
2022/03/31 07:48:37;;;;;;;9.13;6.80;;;3.30;99.90;;;;;;5029244;28;20091;-81
2022/03/31 07:51:03;;;;;;;10.07;6.90;;;3.70;99.90;;;;;;5028044;28;20050;-81
2022/03/31 07:53:33;;;;;;;9.93;6.50;;;3.70;99.90;;;;;;5030131;28;20147;-80
2022/03/31 07:55:59;;;;;;;9.05;6.78;;;3.80;99.90;;;;;;5031171;28;20057;-78
2022/03/31 07:58:25;;;;;;;9.10;6.75;;;3.80;99.90;;;;;;5030377;28;20047;-81
2022/03/31 08:00:52;;;;;;;8.85;6.38;;;3.80;99.90;;;;;;5027270;28;20049;-81
2022/03/31 08:03:19;;;;;;;8.35;6.30;;;3.80;99.90;;;;;;5033328;28;20528;-80
2022/03/31 08:05:45;;;;;;;8.70;6.80;;;3.80;99.90;;;;;;5028569;28;20044;-80
2022/03/31 08:08:12;;;;;;;8.85;6.35;;;3.80;99.90;;;;;;5023969;28;20052;-81
2022/03/31 08:10:38;;;;;;;10.18;6.63;;;3.80;99.90;;;;;;5021172;28;20044;-81
2022/03/31 08:13:05;;;;;;;9.18;6.57;;;3.90;99.90;;;;;;5032531;28;20699;-81
2022/03/31 08:15:30;;;;;;;7.63;5.88;;;3.90;99.90;;;;;;5034753;28;20120;-80
2022/03/31 08:17:58;;;;;;;8.35;6.05;;;3.80;99.90;;;;;;5030922;28;20156;-80
2022/03/31 08:20:25;;;;;;;8.52;5.95;;;3.80;99.90;;;;;;5029932;28;20094;-80
2022/03/31 08:22:50;;;;;;;7.70;5.82;;;3.90;99.90;;;;;;5033995;28;20847;-80
2022/03/31 08:25:17;;;;;;;7.32;4.78;;;3.90;99.90;;;;;;5028377;28;20049;-80
2022/03/31 08:27:43;;;;;;;7.05;4.65;;;3.90;99.90;;;;;;5026519;28;20097;-80
2022/03/31 08:30:16;;;;;;;7.40;4.43;;;3.90;99.90;;;;;;5033159;28;20045;-81
2022/03/31 08:32:43;;;;;;;6.88;4.00;;;3.90;99.90;;;;;;5024660;28;20065;-81
2022/03/31 08:35:10;;;;;;;5.20;3.35;;;3.90;99.90;;;;;;5036856;28;20076;-81
2022/03/31 08:37:37;;;;;;;7.30;4.25;;;3.80;99.90;;;;;;5038398;28;20243;-81
2022/03/31 08:40:07;;;;;;;6.38;4.03;;;3.80;99.90;;;;;;5036945;28;20051;-81
2022/03/31 08:42:33;;;;;;;4.85;3.20;;;3.80;99.90;;;;;;5018820;28;20057;-81
2022/03/31 08:45:00;;;;;;;7.95;3.63;;;3.80;99.90;;;;;;5025963;28;20049;-80
2022/03/31 08:47:27;;;;;;;5.72;3.38;;;3.80;99.90;;;;;;5039504;28;20081;-80
2022/03/31 08:49:56;;;;;;;6.88;3.70;;;3.70;99.90;;;;;;5039159;28;20059;-78
2022/03/31 08:52:23;;;;;;;5.20;3.03;;;3.60;99.90;;;;;;5023917;28;20212;-79
2022/03/31 08:54:49;;;;;;;5.75;3.22;;;3.60;99.90;;;;;;5038934;28;20049;-82
2022/03/31 08:57:17;;;;;;;7.07;4.03;;;3.50;99.90;;;;;;5032562;28;20037;-83
2022/03/31 08:59:43;;;;;;;6.90;4.10;;;4.00;99.90;;;;;;5037181;28;20693;-84
2022/03/31 09:02:20;;;;;;;6.65;4.15;;;3.30;99.90;;;;;;5048123;28;20052;-84
2022/03/31 09:04:46;;;;;;;6.82;4.13;;;3.30;99.90;;;;;;5035852;28;20378;-80
2022/03/31 09:07:11;;;;;;;8.00;4.43;;;3.30;99.90;;;;;;5038342;28;20051;-80
2022/03/31 09:09:47;;;;;;;7.65;4.60;;;3.20;99.90;;;;;;5037898;28;20036;-81
2022/03/31 09:12:13;;;;;;;8.13;4.68;;;4.00;99.90;;;;;;5037402;28;20044;-77
2022/03/31 09:14:39;;;;;;;8.02;4.68;;;3.20;99.90;;;;;;5037552;28;20041;-82
2022/03/31 09:17:13;;;;;;;7.47;4.93;;;3.30;99.90;;;;;;5036028;28;20409;-82
2022/03/31 09:19:39;;;;;;;8.38;5.20;;;3.20;99.90;;;;;;5036678;28;20052;-81
2022/03/31 09:22:04;;;;;;;8.20;5.43;;;3.20;99.90;;;;;;5036427;28;20051;-82
2022/03/31 09:24:31;;;;;;;9.02;5.88;;;4.00;99.90;;;;;;5036513;28;20140;-82
2022/03/31 09:26:58;;;;;;;8.95;5.60;;;3.20;99.90;;;;;;5036744;28;20584;-82
2022/03/31 09:29:26;;;;;;;8.55;5.25;;;3.20;99.90;;;;;;5035900;28;20530;-82
2022/03/31 09:31:53;;;;;;;9.30;5.97;;;3.20;99.90;;;;;;5037459;28;20072;-82
2022/03/31 09:34:19;;;;;;;8.68;5.57;;;3.20;99.90;;;;;;5034627;28;20053;-82
2022/03/31 09:36:51;;;;;;;10.52;6.80;;;3.20;99.90;;;;;;5035010;28;20052;-81
2022/03/31 09:39:18;;;;;;;11.32;6.93;;;3.30;99.90;;;;;;5038876;28;20045;-82
2022/03/31 09:41:50;;;;;;;13.38;7.80;;;3.90;99.90;;;;;;5031950;28;20124;-81
2022/03/31 09:44:23;;;;;;;15.93;9.85;;;3.70;99.90;;;;;;5034776;28;20045;-81
2022/03/31 09:46:50;;;;;;;16.02;9.55;;;3.20;99.90;;;;;;5034414;28;20827;-81
2022/03/31 09:49:23;;;;;;;15.93;9.93;;;3.10;99.90;;;;;;5034039;28;20132;-81
2022/03/31 09:51:54;;;;;;;15.55;9.98;;;3.00;99.90;;;;;;5033351;28;20253;-81
2022/03/31 09:54:27;;;;;;;16.85;9.85;;;3.00;99.90;;;;;;5032683;28;20057;-80
2022/03/31 09:56:54;;;;;;;14.63;8.48;;;3.80;99.90;;;;;;5027100;28;20075;-81
2022/03/31 09:59:20;;;;;;;12.48;7.88;;;2.80;99.90;;;;;;5034133;28;20809;-81
2022/03/31 10:01:46;;;;;;;8.70;5.53;;;2.80;99.90;;;;;;5034989;28;20044;-82
2022/03/31 10:04:13;;;;;;;9.90;6.15;;;2.70;99.90;;;;;;5032029;28;20044;-83
2022/03/31 10:06:41;;;;;;;7.88;4.95;;;2.70;99.90;;;;;;5031428;28;20060;-84
2022/03/31 10:09:09;;;;;;;7.22;4.13;;;3.40;99.90;;;;;;5032475;28;20076;-82
2022/03/31 10:11:43;;;;;;;7.97;4.95;;;2.70;99.90;;;;;;5032503;28;20041;-83
2022/03/31 10:14:24;;;;;;;9.35;5.60;;;2.60;99.90;;;;;;5028338;28;20097;-83
2022/03/31 10:16:55;;;;;;;10.98;6.68;;;2.60;99.90;;;;;;5034139;28;20709;-83
2022/03/31 10:19:35;;;;;;;13.63;8.07;;;2.60;99.90;;;;;;5030716;28;20033;-84
2022/03/31 10:24:41;;;;;;;16.55;9.75;;;2.60;99.90;;;;;;5025090;28;20051;-83
2022/03/31 10:24:57;;;;;;;16.92;9.77;;;2.60;99.90;;;;;;5033074;28;20119;-84
2022/03/31 10:27:28;;;;;;;15.65;9.63;;;2.60;99.90;;;;;;5029298;28;20048;-83
2022/03/31 10:29:55;;;;;;;17.23;9.35;;;2.50;99.90;;;;;;5031150;28;20801;-84
2022/03/31 10:32:23;;;;;;;14.05;8.90;;;2.50;99.90;;;;;;5031563;28;20037;-84
2022/03/31 10:34:51;;;;;;;12.77;8.18;;;2.40;99.90;;;;;;5035464;28;20056;-85
2022/03/31 10:37:31;;;;;;;13.43;8.40;;;2.40;99.90;;;;;;5034137;28;20135;-82
2022/03/31 10:39:57;;;;;;;13.88;8.48;;;2.50;99.90;;;;;;5029433;28;20082;-82
2022/03/31 10:42:23;;;;;;;14.52;8.43;;;2.50;99.90;;;;;;5027907;28;20060;-82
2022/03/31 10:45:01;;;;;;;15.50;9.85;;;2.50;99.90;;;;;;5037421;28;20044;-81
2022/03/31 10:47:34;;;;;;;15.45;9.48;;;2.40;99.90;;;;;;5035457;28;20106;-81
2022/03/31 10:49:59;;;;;;;13.43;8.95;;;2.40;99.90;;;;;;5042986;28;20053;-82
2022/03/31 10:52:27;;;;;;;15.52;9.65;;;2.40;99.90;;;;;;5032168;28;20056;-81
2022/03/31 10:55:09;;;;;;;13.65;8.52;;;2.40;99.90;;;;;;5032875;28;20057;-82
2022/03/31 10:57:40;;;;;;;13.27;8.23;;;2.40;99.90;;;;;;5029766;28;20697;-83
2022/03/31 11:00:08;;;;;;;11.10;6.85;;;2.40;99.90;;;;;;5032537;28;20838;-82
2022/03/31 11:02:40;;;;;;;9.82;6.43;;;2.40;99.90;;;;;;5031408;28;20046;-83
2022/03/31 11:05:07;;;;;;;8.90;5.70;;;2.40;99.90;;;;;;5033233;28;20041;-83
2022/03/31 11:07:32;;;;;;;7.28;4.60;;;2.40;99.90;;;;;;5028166;28;20068;-82
2022/03/31 11:10:04;;;;;;;9.25;5.25;;;2.30;99.90;;;;;;5032639;28;20043;-82
2022/03/31 11:12:30;;;;;;;7.05;4.53;;;2.30;99.90;;;;;;5029016;28;20538;-82
2022/03/31 11:14:59;;;;;;;7.35;4.30;;;2.30;99.90;;;;;;5030646;28;20052;-79
2022/03/31 11:17:25;;;;;;;7.43;4.68;;;2.30;99.90;;;;;;5025622;28;20041;-80
2022/03/31 11:19:53;;;;;;;7.97;5.05;;;2.30;99.90;;;;;;5037196;28;20397;-83
2022/03/31 11:22:20;;;;;;;7.10;4.57;;;2.20;99.90;;;;;;5035379;28;20049;-83
2022/03/31 11:24:46;;;;;;;7.88;4.50;;;2.20;99.90;;;;;;5037742;28;20162;-82
2022/03/31 11:27:11;;;;;;;6.53;4.28;;;2.20;99.90;;;;;;5033313;28;20579;-82
2022/03/31 11:29:37;;;;;;;7.60;4.82;;;2.20;99.90;;;;;;5027402;28;20068;-83
2022/03/31 11:32:04;;;;;;;6.82;4.82;;;2.20;99.90;;;;;;5034323;28;20488;-82
2022/03/31 11:34:30;;;;;;;7.65;4.82;;;2.10;99.90;;;;;;5035707;28;20060;-80
2022/03/31 11:36:57;;;;;;;8.35;4.97;;;2.10;99.90;;;;;;5022800;28;20067;-80
2022/03/31 11:39:28;;;;;;;7.55;5.25;;;2.10;99.90;;;;;;5031784;28;20154;-81
2022/03/31 11:41:54;;;;;;;8.20;5.15;;;2.10;99.90;;;;;;5030329;28;20064;-81
2022/03/31 11:44:21;;;;;;;7.53;5.00;;;2.10;99.90;;;;;;5030341;28;20041;-82
2022/03/31 11:46:48;;;;;;;7.22;4.93;;;2.20;99.90;;;;;;5030794;28;20817;-86
2022/03/31 11:49:26;;;;;;;8.05;5.00;;;2.00;99.90;;;;;;5034281;28;20168;-88
2022/03/31 11:51:58;;;;;;;7.35;4.93;;;2.00;99.90;;;;;;5042214;28;20048;-88
2022/03/31 11:54:24;;;;;;;8.02;5.28;;;2.10;99.90;;;;;;5037233;28;20053;-86
2022/03/31 11:57:08;;;;;;;9.02;5.43;;;2.00;99.90;;;;;;5042492;28;20787;-87
2022/03/31 11:59:35;;;;;;;8.13;5.32;;;2.10;99.90;;;;;;5041236;28;20712;-80
2022/03/31 12:02:01;;;;;;;8.13;5.72;;;2.10;99.90;;;;;;5028927;28;20037;-88
2022/03/31 12:04:30;;;;;;;9.23;6.20;;;2.10;99.90;;;;;;5036165;28;20127;-86
2022/03/31 12:07:03;;;;;;;9.85;5.93;;;2.10;99.90;;;;;;5036487;28;20045;-85
2022/03/31 12:09:30;;;;;;;7.88;6.13;;;2.10;99.90;;;;;;5030714;28;20064;-87
2022/03/31 12:11:57;;;;;;;9.13;5.65;;;2.10;99.90;;;;;;5040600;28;20041;-87
2022/03/31 12:14:28;;;;;;;9.07;6.18;;;2.10;99.90;;;;;;5031767;28;20065;-87
2022/03/31 12:16:56;;;;;;;9.98;6.85;;;2.10;99.90;;;;;;5036276;28;20045;-81
2022/03/31 12:19:23;;;;;;;9.38;6.75;;;3.00;99.90;;;;;;5033779;28;20084;-82
2022/03/31 12:21:57;;;;;;;10.85;7.05;;;2.10;99.90;;;;;;5033832;28;20045;-82
2022/03/31 12:24:22;;;;;;;10.13;7.28;;;2.10;99.90;;;;;;5034355;28;20131;-81
2022/03/31 12:27:02;;;;;;;11.10;7.32;;;2.10;99.90;;;;;;5032664;28;20041;-80
2022/03/31 12:29:31;;;;;;;10.93;7.10;;;2.10;99.90;;;;;;5030417;28;20067;-81
2022/03/31 12:32:01;;;;;;;10.52;7.63;;;1.90;99.90;;;;;;5027803;28;20045;-80
2022/03/31 12:34:26;;;;;;;10.38;7.22;;;2.10;99.90;;;;;;5034846;28;20072;-81
2022/03/31 12:36:53;;;;;;;13.75;7.97;;;2.10;99.90;;;;;;5011711;28;20104;-81
2022/03/31 12:39:19;;;;;;;11.00;7.50;;;2.10;99.90;;;;;;5033680;28;20052;-79
2022/03/31 12:41:51;;;;;;;11.75;8.02;;;2.10;99.90;;;;;;5032753;28;20041;-80
2022/03/31 12:44:21;;;;;;;13.10;8.48;;;2.10;99.90;;;;;;5031105;28;20068;-79
2022/03/31 12:46:55;;;;;;;11.65;8.20;;;2.10;99.90;;;;;;5033879;28;21656;-79
2022/03/31 12:49:25;;;;;;;13.38;8.20;;;2.20;99.90;;;;;;5029902;28;20107;-78
2022/03/31 12:52:01;;;;;;;14.25;9.68;;;2.20;99.90;;;;;;5036433;28;20601;-79
2022/03/31 12:54:35;;;;;;;12.38;8.95;;;2.20;99.90;;;;;;5031631;28;20057;-81
2022/03/31 12:57:13;;;;;;;14.30;10.02;;;2.20;99.90;;;;;;5032879;28;20088;-81
2022/03/31 12:59:42;;;;;;;17.92;10.50;;;2.20;99.90;;;;;;5034274;28;20049;-81